Terminal Aerodrome Forecast
Issued by NWS

Home | Current Version | Previous Version | Text Only | Print | Product List | Glossary On
Versions: 1 2 3 4 5 6 7 8 9 10 11 12 13 14 15
359
FTUS41 KBTV 222331
TAFMSS
TAF
KMSS 222331Z 2300/2324 22005KT P6SM OVC090
     FM230500 14004KT 4SM -SHRA BR OVC035
     FM231300 21012G22KT P6SM VCSH OVC025=

USA.gov is the U.S. government's official web portal to all federal, state and local government web resources and services.